Time;durP1;ratioP1;P1;durP2;ratioP2;P2;SDS_P1;SDS_P2;PMS_P1;PMS_P2;Temp;Humidity;BMP_temperature;BMP_pressure;BME280_temperature;BME280_humidity;BME280_pressure;Samples;Min_cycle;Max_cycle;Signal;HPM_P1;HPM_P2
2021/06/10 00:02:36;;;;;;;;;;;22.10;64.20;;;;;;5007103;28;20068;-76
2021/06/10 00:05:22;;;;;;;8.43;5.15;;;22.10;63.10;;;;;;5013032;28;19963;-75
2021/06/10 00:08:07;;;;;;;6.82;5.38;;;22.00;64.70;;;;;;5013085;28;20041;-75
2021/06/10 00:10:53;;;;;;;7.80;5.57;;;22.00;65.10;;;;;;5014305;28;20036;-76
2021/06/10 00:13:37;;;;;;;7.07;4.80;;;22.00;64.30;;;;;;5012982;28;20083;-75
2021/06/10 00:16:21;;;;;;;8.95;5.05;;;22.00;64.90;;;;;;5014059;28;20045;-74
2021/06/10 00:19:05;;;;;;;6.40;5.20;;;22.00;65.10;;;;;;5013474;28;20040;-74
2021/06/10 00:21:49;;;;;;;7.47;5.17;;;22.00;64.70;;;;;;5010729;28;20298;-75
2021/06/10 00:24:33;;;;;;;7.40;4.85;;;21.90;64.60;;;;;;5018166;28;20099;-75
2021/06/10 00:27:21;;;;;;;7.72;5.18;;;21.90;64.30;;;;;;5012666;28;20040;-75
2021/06/10 00:30:10;;;;;;;6.88;4.70;;;21.90;64.60;;;;;;5017119;28;20033;-75
2021/06/10 00:32:55;;;;;;;8.07;4.88;;;21.90;64.50;;;;;;5013037;28;20095;-74
2021/06/10 00:35:39;;;;;;;6.78;4.53;;;21.80;64.80;;;;;;5013592;28;20033;-75
2021/06/10 00:38:24;;;;;;;7.82;5.10;;;21.80;65.20;;;;;;5019840;28;20040;-75
2021/06/10 00:41:08;;;;;;;7.50;4.97;;;21.70;65.20;;;;;;5005006;28;20576;-75
2021/06/10 00:43:52;;;;;;;7.57;5.07;;;21.70;65.30;;;;;;5012112;28;20096;-75
2021/06/10 00:46:36;;;;;;;7.28;5.00;;;21.70;65.50;;;;;;5014092;28;20299;-73
2021/06/10 00:49:20;;;;;;;8.75;5.25;;;21.70;65.60;;;;;;5010814;28;20056;-75
2021/06/10 00:52:04;;;;;;;9.07;5.05;;;21.60;65.90;;;;;;5008042;28;20036;-75
2021/06/10 00:54:49;;;;;;;;;;;21.60;66.30;;;;;;4996485;28;20091;-75
2021/06/10 00:57:34;;;;;;;7.43;5.00;;;21.60;65.30;;;;;;5004797;28;19960;-76
2021/06/10 01:00:19;;;;;;;8.85;5.68;;;21.50;66.30;;;;;;5013380;28;20268;-76
2021/06/10 01:03:03;;;;;;;8.30;4.90;;;21.50;66.80;;;;;;5012073;28;20060;-76
2021/06/10 01:05:52;;;;;;;6.82;4.53;;;21.50;67.20;;;;;;5011001;28;20060;-76
2021/06/10 01:08:47;;;;;;;6.05;4.50;;;21.50;67.40;;;;;;5005457;28;20517;-76
2021/06/10 01:11:56;;;;;;;5.88;4.50;;;21.40;67.70;;;;;;5012983;28;20125;-75
2021/06/10 01:14:55;;;;;;;7.75;4.60;;;21.40;68.10;;;;;;5013022;28;20544;-75
2021/06/10 01:17:44;;;;;;;7.55;4.90;;;21.40;68.50;;;;;;5008332;28;20037;-76
2021/06/10 01:20:29;;;;;;;8.20;4.72;;;21.30;68.90;;;;;;4997938;28;20077;-74
2021/06/10 01:23:37;;;;;;;6.13;4.60;;;21.30;69.20;;;;;;5010812;28;20033;-75
2021/06/10 01:26:50;;;;;;;6.30;4.88;;;21.30;69.70;;;;;;5012350;28;20044;-76
2021/06/10 01:29:36;;;;;;;6.03;4.60;;;21.20;69.70;;;;;;5012518;28;20060;-75
2021/06/10 01:32:23;;;;;;;7.10;4.45;;;21.20;70.20;;;;;;5011807;28;20049;-76
2021/06/10 01:35:08;;;;;;;8.77;4.53;;;21.10;70.40;;;;;;5012654;28;20406;-74
2021/06/10 01:37:55;;;;;;;7.63;4.75;;;21.10;70.80;;;;;;5011707;28;20033;-74
2021/06/10 01:40:41;;;;;;;9.48;5.15;;;21.10;71.10;;;;;;5025612;28;20066;-68
2021/06/10 01:43:29;;;;;;;5.28;4.60;;;21.10;71.50;;;;;;5013469;28;20042;-69
2021/06/10 01:46:15;;;;;;;5.90;4.47;;;21.10;71.70;;;;;;4992429;28;20565;-68
2021/06/10 01:49:00;;;;;;;7.20;4.32;;;21.10;71.60;;;;;;5007573;28;20041;-68
2021/06/10 01:51:30;;;;;;;6.45;4.70;;;21.10;72.00;;;;;;4997127;28;20065;-68
2021/06/10 01:54:16;;;;;;;7.10;4.90;;;21.10;72.20;;;;;;4996361;28;20049;-68
2021/06/10 01:57:02;;;;;;;7.40;4.45;;;21.10;72.40;;;;;;5019625;28;20120;-68
2021/06/10 01:59:48;;;;;;;5.80;4.43;;;21.10;72.60;;;;;;5018709;28;20501;-68
2021/06/10 02:02:33;;;;;;;7.07;4.55;;;21.10;73.00;;;;;;5010962;28;20041;-68
2021/06/10 02:05:19;;;;;;;6.43;4.60;;;21.10;73.10;;;;;;5011058;28;20100;-68
2021/06/10 02:08:08;;;;;;;7.45;5.03;;;21.10;73.50;;;;;;5012275;28;20029;-68
2021/06/10 02:10:56;;;;;;;7.68;5.00;;;21.10;73.80;;;;;;4992459;28;20038;-68
2021/06/10 02:13:42;;;;;;;6.40;4.60;;;21.10;73.80;;;;;;4992242;28;20041;-68
2021/06/10 02:16:27;;;;;;;7.40;4.95;;;21.10;73.80;;;;;;5000528;28;20126;-68
2021/06/10 02:19:12;;;;;;;6.13;4.95;;;21.10;73.80;;;;;;5010742;28;20084;-68
2021/06/10 02:21:56;;;;;;;6.93;4.97;;;21.10;74.20;;;;;;4992467;28;20077;-68
2021/06/10 02:24:40;;;;;;;6.47;4.83;;;21.10;74.40;;;;;;5001864;28;20124;-68
2021/06/10 02:27:24;;;;;;;6.38;4.70;;;21.10;74.50;;;;;;5011943;28;20405;-68
2021/06/10 02:30:10;;;;;;;5.90;4.83;;;21.10;74.50;;;;;;5010804;28;20036;-68
2021/06/10 02:32:55;;;;;;;6.65;4.65;;;21.10;74.30;;;;;;5012075;28;20037;-68
2021/06/10 02:35:39;;;;;;;6.57;4.95;;;21.10;74.70;;;;;;5010576;28;20094;-68
2021/06/10 02:38:26;;;;;;;7.97;4.83;;;21.10;74.80;;;;;;5010928;28;20060;-68
2021/06/10 02:41:13;;;;;;;9.30;5.40;;;21.00;75.00;;;;;;4992189;28;20672;-68
2021/06/10 02:44:00;;;;;;;6.60;5.13;;;21.00;75.10;;;;;;4996680;28;20064;-68
2021/06/10 02:46:45;;;;;;;6.85;5.00;;;21.10;75.10;;;;;;5012012;28;20041;-68
2021/06/10 02:49:31;;;;;;;6.57;4.82;;;21.00;75.10;;;;;;5000488;28;20341;-68
2021/06/10 02:52:17;;;;;;;7.80;5.07;;;21.00;75.50;;;;;;4991984;28;20093;-68
2021/06/10 02:55:02;;;;;;;8.55;4.80;;;21.10;75.10;;;;;;5004716;28;20061;-68
2021/06/10 02:57:51;;;;;;;9.35;5.07;;;21.10;75.20;;;;;;5025271;28;20056;-68
2021/06/10 03:00:35;;;;;;;6.43;4.70;;;21.10;75.20;;;;;;5010720;28;20040;-68
2021/06/10 03:03:21;;;;;;;7.15;5.22;;;21.10;74.60;;;;;;5009806;28;20041;-68
2021/06/10 03:06:06;;;;;;;8.00;4.90;;;21.20;74.20;;;;;;4991869;28;20116;-67
2021/06/10 03:08:51;;;;;;;10.40;5.38;;;21.20;74.00;;;;;;4994835;28;20065;-67
2021/06/10 03:11:41;;;;;;;6.43;4.70;;;21.20;73.90;;;;;;5011564;28;20052;-67
2021/06/10 03:14:25;;;;;;;7.65;4.53;;;21.20;73.80;;;;;;5010451;28;20029;-68
2021/06/10 03:17:13;;;;;;;8.85;5.15;;;21.20;73.60;;;;;;5011301;28;20445;-67
2021/06/10 03:19:58;;;;;;;8.15;5.40;;;21.20;73.10;;;;;;5009885;28;20092;-67
2021/06/10 03:22:42;;;;;;;7.45;5.00;;;21.30;72.70;;;;;;5011455;28;20511;-68
2021/06/10 03:25:27;;;;;;;8.60;4.50;;;21.30;73.00;;;;;;5012479;28;20416;-67
2021/06/10 03:28:13;;;;;;;10.10;5.30;;;21.30;72.90;;;;;;5032663;28;20064;-67
2021/06/10 03:30:57;;;;;;;6.80;5.35;;;21.30;72.00;;;;;;4995315;28;20037;-67
2021/06/10 03:33:43;;;;;;;7.95;4.72;;;21.30;71.80;;;;;;4995624;28;20041;-68
2021/06/10 03:36:30;;;;;;;9.82;5.47;;;21.30;71.60;;;;;;4995127;28;20065;-68
2021/06/10 03:39:17;;;;;;;9.95;5.63;;;21.30;71.70;;;;;;5000842;28;20025;-68
2021/06/10 03:42:02;;;;;;;7.32;4.82;;;21.40;71.90;;;;;;5014675;28;20037;-68
2021/06/10 03:44:47;;;;;;;11.45;6.03;;;21.40;72.10;;;;;;5013044;28;20076;-68
2021/06/10 03:47:32;;;;;;;7.43;5.45;;;21.40;72.40;;;;;;5012646;28;20092;-68
2021/06/10 03:50:16;;;;;;;8.18;5.50;;;21.40;72.80;;;;;;5012457;28;20095;-68
2021/06/10 03:52:43;;;;;;;6.78;5.15;;;21.30;73.10;;;;;;4996655;28;20034;-68
2021/06/10 03:55:27;;;;;;;8.52;5.72;;;21.30;73.40;;;;;;4996285;28;20045;-68
2021/06/10 03:58:11;;;;;;;9.00;5.20;;;21.30;73.50;;;;;;5031320;28;20129;-68
2021/06/10 04:00:56;;;;;;;8.65;5.03;;;21.30;73.30;;;;;;5014212;28;20040;-68
2021/06/10 04:03:40;;;;;;;6.53;4.97;;;21.30;73.00;;;;;;5012910;28;20057;-68
2021/06/10 04:06:30;;;;;;;7.80;5.57;;;21.20;72.90;;;;;;5012439;28;20316;-70
2021/06/10 04:09:15;;;;;;;8.05;5.20;;;21.10;72.60;;;;;;5005443;28;20089;-69
2021/06/10 04:11:59;;;;;;;7.50;5.28;;;21.00;72.40;;;;;;4993013;28;20057;-69
2021/06/10 04:14:43;;;;;;;7.57;5.32;;;21.00;72.70;;;;;;4995805;28;20061;-71
2021/06/10 04:17:27;;;;;;;9.15;5.80;;;20.90;72.70;;;;;;4994675;28;20092;-71
2021/06/10 04:20:12;;;;;;;8.40;5.63;;;20.90;72.80;;;;;;5009434;28;20115;-69
2021/06/10 04:22:56;;;;;;;;;;;20.90;73.50;;;;;;5013326;28;20690;-69
2021/06/10 04:25:40;;;;;;;8.65;5.82;;;20.80;73.00;;;;;;5012260;28;20443;-69
2021/06/10 04:28:24;;;;;;;8.80;5.60;;;20.80;73.40;;;;;;5012892;28;20045;-70
2021/06/10 04:31:08;;;;;;;8.43;5.60;;;20.90;73.20;;;;;;4994343;28;20041;-70
2021/06/10 04:33:52;;;;;;;7.50;5.87;;;21.00;73.00;;;;;;4994018;28;20046;-68
2021/06/10 04:36:36;;;;;;;7.72;5.40;;;21.00;72.80;;;;;;4997015;28;20283;-69
2021/06/10 04:39:21;;;;;;;7.28;5.28;;;21.00;73.30;;;;;;5008025;28;20041;-69
2021/06/10 04:42:05;;;;;;;6.00;4.87;;;21.00;73.10;;;;;;5013563;28;20040;-68
2021/06/10 04:44:49;;;;;;;8.38;5.45;;;21.10;72.50;;;;;;4998272;28;20513;-68
2021/06/10 04:47:33;;;;;;;6.78;5.03;;;21.10;72.60;;;;;;4993959;28;20049;-69
2021/06/10 04:50:18;;;;;;;6.07;5.13;;;21.20;72.60;;;;;;5008529;28;20044;-68
2021/06/10 04:53:02;;;;;;;6.63;5.20;;;21.10;72.60;;;;;;5001008;28;20057;-68
2021/06/10 04:55:47;;;;;;;7.78;5.28;;;21.20;72.50;;;;;;4996507;28;20041;-68
2021/06/10 04:58:31;;;;;;;5.65;4.65;;;21.20;72.10;;;;;;4996436;28;20053;-68
2021/06/10 05:01:15;;;;;;;6.47;5.15;;;21.30;72.80;;;;;;4993462;28;20038;-68
2021/06/10 05:03:59;;;;;;;7.55;5.05;;;21.30;72.10;;;;;;5002403;28;20147;-69
2021/06/10 05:06:43;;;;;;;6.05;4.95;;;21.30;71.50;;;;;;5008993;28;20056;-69
2021/06/10 05:09:27;;;;;;;6.33;5.13;;;21.40;71.30;;;;;;5001080;28;20080;-70
2021/06/10 05:12:11;;;;;;;7.97;6.05;;;21.40;71.30;;;;;;5009471;28;20404;-69
2021/06/10 05:14:55;;;;;;;9.60;5.80;;;21.40;71.00;;;;;;5009844;28;20050;-69
2021/06/10 05:17:39;;;;;;;7.65;5.53;;;21.40;71.00;;;;;;5013009;28;20097;-69
2021/06/10 05:20:23;;;;;;;8.45;5.63;;;21.40;71.00;;;;;;5023175;28;20129;-69
2021/06/10 05:23:08;;;;;;;7.63;5.05;;;21.50;70.70;;;;;;5012831;28;20044;-70
2021/06/10 05:25:53;;;;;;;6.82;5.05;;;21.60;71.10;;;;;;5020659;28;20425;-69
2021/06/10 05:28:37;;;;;;;6.90;4.57;;;21.70;70.90;;;;;;5002568;28;20100;-68
2021/06/10 05:31:22;;;;;;;7.57;5.25;;;21.80;70.40;;;;;;5004592;28;20044;-69
2021/06/10 05:34:06;;;;;;;6.45;5.03;;;21.80;70.40;;;;;;4992918;28;20048;-68
2021/06/10 05:36:50;;;;;;;6.27;5.33;;;21.80;70.00;;;;;;4993007;28;20084;-69
2021/06/10 05:39:34;;;;;;;7.70;5.40;;;21.90;70.10;;;;;;5005164;28;20100;-69
2021/06/10 05:42:18;;;;;;;7.60;5.23;;;22.00;69.80;;;;;;5012468;28;20355;-68
2021/06/10 05:45:04;;;;;;;8.43;5.30;;;22.10;70.30;;;;;;5005903;28;20296;-68
2021/06/10 05:47:49;;;;;;;7.57;5.35;;;22.30;69.60;;;;;;5012489;28;20172;-68
2021/06/10 05:50:33;;;;;;;7.95;4.78;;;22.30;69.20;;;;;;5010359;28;20076;-69
2021/06/10 05:53:04;;;;;;;6.30;5.00;;;22.50;69.10;;;;;;4996403;28;20394;-69
2021/06/10 05:55:48;;;;;;;7.80;4.97;;;22.50;68.30;;;;;;5012083;28;20796;-69
2021/06/10 05:58:33;;;;;;;8.97;5.30;;;22.60;68.80;;;;;;4997543;28;20089;-69
2021/06/10 06:01:17;;;;;;;8.52;5.25;;;22.60;67.80;;;;;;5000572;28;20029;-70
2021/06/10 06:04:01;;;;;;;8.55;4.68;;;22.60;67.70;;;;;;5008713;28;20103;-71
2021/06/10 06:06:46;;;;;;;11.27;5.13;;;22.60;68.00;;;;;;4998546;28;20138;-70
2021/06/10 06:09:11;;;;;;;8.52;5.07;;;22.70;68.10;;;;;;5004834;28;20376;-68
2021/06/10 06:11:37;;;;;;;9.68;4.95;;;22.70;67.40;;;;;;5011317;28;20526;-69
2021/06/10 06:14:10;;;;;;;12.75;4.80;;;22.70;66.80;;;;;;5006351;28;20037;-68
2021/06/10 06:16:39;;;;;;;7.43;5.80;;;22.80;67.90;;;;;;5011453;28;20042;-69
2021/06/10 06:19:06;;;;;;;9.88;5.13;;;22.90;66.70;;;;;;5006644;28;20390;-69
2021/06/10 06:21:33;;;;;;;10.77;5.60;;;22.90;68.40;;;;;;5011466;28;20038;-69
2021/06/10 06:23:58;;;;;;;8.43;5.40;;;23.00;67.50;;;;;;5008452;28;20437;-70
2021/06/10 06:26:24;;;;;;;9.20;5.65;;;23.10;66.40;;;;;;5011556;28;20037;-69
2021/06/10 06:28:49;;;;;;;6.97;5.15;;;23.20;66.20;;;;;;5006528;28;20026;-69
2021/06/10 06:31:15;;;;;;;10.18;5.28;;;23.30;65.90;;;;;;5008231;28;20099;-70
2021/06/10 06:33:59;;;;;;;7.07;5.05;;;23.50;66.70;;;;;;5008308;28;20057;-70
2021/06/10 06:36:43;;;;;;;8.07;5.07;;;23.60;65.80;;;;;;5010717;28;20045;-69
2021/06/10 06:39:28;;;;;;;6.63;4.80;;;23.70;65.10;;;;;;5010225;28;20441;-70
2021/06/10 06:42:12;;;;;;;14.55;5.70;;;23.80;65.20;;;;;;4992114;28;20045;-69
2021/06/10 06:44:56;;;;;;;6.85;4.75;;;23.90;63.90;;;;;;5000632;28;20041;-68
2021/06/10 06:47:40;;;;;;;7.05;4.90;;;24.10;65.20;;;;;;5009363;28;20044;-72
2021/06/10 06:50:24;;;;;;;8.82;4.88;;;24.20;65.50;;;;;;5010304;28;20556;-72
2021/06/10 06:53:08;;;;;;;6.25;4.95;;;24.30;64.60;;;;;;4997986;28;20037;-74
2021/06/10 06:55:53;;;;;;;9.05;4.40;;;24.40;63.30;;;;;;4991966;28;20041;-72
2021/06/10 06:58:38;;;;;;;9.32;4.45;;;24.50;62.60;;;;;;5001776;28;20060;-74
2021/06/10 07:01:22;;;;;;;5.72;4.32;;;24.60;62.20;;;;;;4999430;28;20112;-73
2021/06/10 07:04:06;;;;;;;9.25;3.97;;;24.70;62.10;;;;;;5005292;28;20089;-73
2021/06/10 07:06:52;;;;;;;7.70;3.88;;;24.80;61.30;;;;;;5008042;28;20053;-73
2021/06/10 07:09:17;;;;;;;7.90;4.05;;;24.80;60.50;;;;;;5006857;28;20481;-74
2021/06/10 07:11:42;;;;;;;8.68;3.67;;;24.90;60.90;;;;;;5009259;28;20041;-72
2021/06/10 07:14:09;;;;;;;7.15;3.78;;;24.90;60.00;;;;;;5013140;28;20029;-72
2021/06/10 07:16:35;;;;;;;6.10;4.13;;;25.00;59.90;;;;;;5014193;28;20061;-71
2021/06/10 07:19:01;;;;;;;7.20;3.60;;;25.10;60.50;;;;;;5008926;28;20463;-72
2021/06/10 07:21:26;;;;;;;5.95;3.75;;;25.10;59.30;;;;;;5002443;28;20374;-71
2021/06/10 07:23:52;;;;;;;4.03;3.13;;;25.10;59.30;;;;;;5008082;28;20575;-72
2021/06/10 07:26:17;;;;;;;6.72;3.65;;;25.20;59.00;;;;;;5002594;28;20038;-72
2021/06/10 07:28:43;;;;;;;6.00;3.15;;;25.30;58.60;;;;;;5010191;28;20080;-71
2021/06/10 07:31:09;;;;;;;4.60;3.13;;;25.30;58.00;;;;;;5007434;28;20025;-71
2021/06/10 07:33:34;;;;;;;5.63;3.35;;;25.30;57.20;;;;;;5013092;28;20026;-72
2021/06/10 07:36:00;;;;;;;4.82;2.90;;;25.40;57.00;;;;;;5014065;28;20022;-71
2021/06/10 07:38:25;;;;;;;4.00;2.85;;;25.40;55.70;;;;;;5014360;28;20026;-72
2021/06/10 07:41:10;;;;;;;6.60;3.20;;;25.30;55.70;;;;;;5013636;28;20044;-72
2021/06/10 07:43:54;;;;;;;7.05;3.53;;;25.30;56.10;;;;;;5014343;28;20812;-72
2021/06/10 07:46:37;;;;;;;5.90;4.40;;;25.30;55.20;;;;;;5013205;28;20052;-71
2021/06/10 07:49:21;;;;;;;4.68;4.13;;;25.30;55.10;;;;;;5012831;28;20072;-72
2021/06/10 07:52:06;;;;;;;7.80;6.15;;;25.20;55.20;;;;;;5014330;28;20044;-71
2021/06/10 07:54:49;;;;;;;6.32;4.40;;;25.20;55.60;;;;;;5013293;28;20033;-70
2021/06/10 07:57:34;;;;;;;8.00;5.55;;;25.10;56.10;;;;;;5007039;28;20449;-73
2021/06/10 07:59:59;;;;;;;6.60;4.78;;;25.10;56.40;;;;;;5009259;28;20022;-71
2021/06/10 08:02:26;;;;;;;7.80;5.05;;;25.10;57.00;;;;;;5000998;28;20065;-71
2021/06/10 08:04:52;;;;;;;7.78;5.20;;;25.10;56.70;;;;;;5011452;28;20065;-71
2021/06/10 08:07:17;;;;;;;8.60;6.88;;;25.10;57.10;;;;;;5010581;28;20026;-71
2021/06/10 08:09:43;;;;;;;8.75;5.78;;;25.10;56.40;;;;;;5011054;28;20502;-70
2021/06/10 08:12:09;;;;;;;9.30;5.88;;;25.10;57.00;;;;;;5011735;28;20053;-71
2021/06/10 08:14:34;;;;;;;13.57;5.32;;;25.10;57.00;;;;;;5012974;28;20068;-71
2021/06/10 08:17:00;;;;;;;7.35;5.50;;;25.20;56.80;;;;;;5009980;28;20466;-72
2021/06/10 08:19:44;;;;;;;9.50;5.50;;;25.20;56.60;;;;;;5013921;28;20084;-72
2021/06/10 08:22:28;;;;;;;;;;;25.20;56.60;;;;;;5011694;28;20091;-72
2021/06/10 08:25:13;;;;;;;6.95;5.22;;;25.20;56.80;;;;;;5013425;28;19959;-72
2021/06/10 08:27:59;;;;;;;;;;;25.30;57.00;;;;;;5010475;28;20191;-72
2021/06/10 08:30:41;;;;;;;7.63;6.15;;;25.30;56.20;;;;;;5008743;28;19915;-72
2021/06/10 08:33:07;;;;;;;7.07;6.38;;;25.40;56.50;;;;;;5017875;28;20030;-72
2021/06/10 08:35:33;;;;;;;11.00;6.18;;;25.40;56.30;;;;;;5006457;28;20080;-72
2021/06/10 08:38:17;;;;;;;;;;;25.50;56.00;;;;;;5004594;28;20036;-70
2021/06/10 08:41:03;;;;;;;7.55;6.05;;;25.50;55.90;;;;;;4993815;28;19916;-72
2021/06/10 08:43:47;;;;;;;6.82;5.68;;;25.50;55.40;;;;;;5007725;28;20588;-72
2021/06/10 08:46:33;;;;;;;6.53;5.53;;;25.50;55.30;;;;;;5008824;28;20054;-72
2021/06/10 08:49:18;;;;;;;7.72;5.32;;;25.60;55.30;;;;;;5010058;28;20547;-72
2021/06/10 08:52:07;;;;;;;8.05;6.03;;;25.60;55.40;;;;;;5013216;28;20398;-73
2021/06/10 08:54:51;;;;;;;8.02;6.78;;;25.70;55.20;;;;;;5003263;28;20044;-73
2021/06/10 08:57:35;;;;;;;6.85;5.88;;;25.80;54.80;;;;;;5010509;28;20106;-73
2021/06/10 09:00:21;;;;;;;13.43;5.32;;;25.80;54.70;;;;;;5013331;28;20036;-72
2021/06/10 09:03:07;;;;;;;6.65;5.30;;;25.80;54.30;;;;;;5011572;28;20104;-72
2021/06/10 09:06:20;;;;;;;7.82;5.32;;;25.80;54.60;;;;;;5011432;28;20041;-73
2021/06/10 09:09:04;;;;;;;8.40;5.25;;;25.90;54.70;;;;;;5011128;28;20081;-72
2021/06/10 09:11:49;;;;;;;7.93;4.50;;;26.00;54.80;;;;;;5009696;28;20064;-72
2021/06/10 09:14:53;;;;;;;9.52;5.57;;;26.10;54.60;;;;;;5011186;28;20064;-71
2021/06/10 09:17:39;;;;;;;10.95;5.47;;;26.20;53.90;;;;;;5012615;28;20037;-71
2021/06/10 09:20:25;;;;;;;8.80;5.88;;;26.30;54.60;;;;;;5011462;28;20037;-72
2021/06/10 09:23:19;;;;;;;6.32;5.50;;;26.30;54.20;;;;;;5009301;28;20087;-72
2021/06/10 09:26:04;;;;;;;5.95;4.60;;;26.40;53.80;;;;;;5012205;28;20044;-72
2021/06/10 09:28:52;;;;;;;7.55;5.13;;;26.50;54.30;;;;;;5012187;28;20072;-72
2021/06/10 09:31:37;;;;;;;8.10;5.40;;;26.60;53.80;;;;;;5011431;28;20037;-72
2021/06/10 09:34:21;;;;;;;10.32;5.53;;;26.70;53.20;;;;;;5007898;28;20036;-72
2021/06/10 09:37:05;;;;;;;8.77;5.72;;;26.70;53.00;;;;;;5008969;28;20029;-72
2021/06/10 09:39:52;;;;;;;7.38;4.80;;;26.80;53.00;;;;;;5011391;28;20037;-71
2021/06/10 09:42:39;;;;;;;10.23;5.03;;;26.80;52.70;;;;;;5011565;28;20036;-70
2021/06/10 09:45:27;;;;;;;11.13;5.10;;;26.90;53.40;;;;;;5012976;28;20128;-76
2021/06/10 09:48:11;;;;;;;10.32;4.68;;;27.00;52.70;;;;;;5012172;28;20547;-77
2021/06/10 09:50:55;;;;;;;6.80;4.95;;;27.10;52.10;;;;;;5017315;28;20053;-76
2021/06/10 09:53:40;;;;;;;9.68;5.47;;;27.20;50.60;;;;;;5020188;28;20149;-75
2021/06/10 09:56:24;;;;;;;9.25;4.80;;;27.30;50.30;;;;;;5019620;28;20037;-75
2021/06/10 09:59:08;;;;;;;8.38;5.25;;;27.40;50.80;;;;;;5017163;28;20068;-75
2021/06/10 10:02:12;;;;;;;;;;;27.50;49.80;;;;;;5020098;28;20067;-75
2021/06/10 10:05:03;;;;;;;6.82;4.72;;;27.50;50.00;;;;;;5026317;28;19975;-76
2021/06/10 10:07:47;;;;;;;6.28;4.72;;;27.60;50.50;;;;;;5028225;28;20025;-76
2021/06/10 10:10:32;;;;;;;6.53;4.35;;;27.60;48.90;;;;;;5007599;28;20704;-76
2021/06/10 10:13:18;;;;;;;8.20;5.40;;;27.50;48.90;;;;;;4993501;28;20061;-75
2021/06/10 10:16:03;;;;;;;6.57;4.32;;;27.50;48.40;;;;;;4996731;28;20032;-75
2021/06/10 10:18:49;;;;;;;8.70;4.47;;;27.30;48.40;;;;;;5008754;28;20042;-76
2021/06/10 10:21:36;;;;;;;4.97;4.28;;;27.30;48.40;;;;;;5002469;28;20089;-76
2021/06/10 10:24:21;;;;;;;8.32;4.43;;;27.20;48.20;;;;;;5004694;28;20111;-75
2021/06/10 10:27:10;;;;;;;6.32;4.32;;;27.10;48.20;;;;;;5012197;28;20173;-75
2021/06/10 10:29:55;;;;;;;10.70;4.28;;;27.10;48.50;;;;;;5006874;28;20117;-76
2021/06/10 10:32:44;;;;;;;11.40;4.25;;;27.10;48.60;;;;;;4992827;28;20089;-74
2021/06/10 10:35:31;;;;;;;10.23;4.10;;;27.00;48.70;;;;;;5007181;28;20403;-76
2021/06/10 10:37:58;;;;;;;4.75;3.70;;;27.00;48.80;;;;;;5002683;28;20030;-74
2021/06/10 10:40:50;;;;;;;;;;;27.00;48.60;;;;;;5018123;28;20048;-74
2021/06/10 10:43:34;;;;;;;5.97;3.63;;;27.00;48.70;;;;;;5015274;28;20006;-74
2021/06/10 10:46:20;;;;;;;5.95;4.00;;;26.90;48.90;;;;;;5002841;28;20139;-74
2021/06/10 10:49:21;;;;;;;5.45;3.75;;;26.90;49.00;;;;;;5012021;28;20482;-75
2021/06/10 10:52:17;;;;;;;7.07;4.15;;;27.00;49.20;;;;;;5012057;28;20084;-74
2021/06/10 10:55:14;;;;;;;7.20;4.35;;;27.00;48.70;;;;;;5006397;28;20045;-75
2021/06/10 10:58:00;;;;;;;5.95;4.00;;;26.80;48.40;;;;;;5008340;28;20032;-76
2021/06/10 11:00:56;;;;;;;5.70;4.15;;;26.80;48.40;;;;;;5013502;28;20172;-73
2021/06/10 11:03:42;;;;;;;6.57;3.80;;;26.80;48.40;;;;;;5011330;28;20496;-73
2021/06/10 11:06:28;;;;;;;7.30;4.00;;;26.80;48.90;;;;;;5016406;28;20069;-74
2021/06/10 11:09:14;;;;;;;5.63;3.78;;;26.90;49.40;;;;;;5002637;28;20450;-75
2021/06/10 11:11:59;;;;;;;7.90;4.20;;;26.90;48.50;;;;;;4995812;28;20545;-73
2021/06/10 11:14:50;;;;;;;4.57;3.60;;;26.90;48.70;;;;;;5009487;28;20056;-74
2021/06/10 11:17:44;;;;;;;6.15;3.40;;;27.00;47.90;;;;;;5012222;28;20394;-74
2021/06/10 11:20:37;;;;;;;8.10;3.65;;;27.00;47.70;;;;;;5011368;28;20044;-73
2021/06/10 11:23:26;;;;;;;6.97;4.00;;;27.10;47.70;;;;;;5012575;28;20126;-74
2021/06/10 11:26:18;;;;;;;5.00;3.60;;;27.20;48.10;;;;;;4995094;28;20046;-74
2021/06/10 11:29:03;;;;;;;7.63;3.75;;;27.30;48.00;;;;;;5002253;28;20037;-73
2021/06/10 11:32:29;;;;;;;6.28;4.00;;;27.30;48.50;;;;;;5014711;28;20064;-73
2021/06/10 11:35:40;;;;;;;3.97;3.55;;;27.30;48.10;;;;;;5012046;28;20066;-74
2021/06/10 11:38:27;;;;;;;4.47;3.50;;;27.40;48.60;;;;;;4998188;28;20104;-75
2021/06/10 11:41:17;;;;;;;8.10;4.05;;;27.50;48.40;;;;;;5003812;28;20126;-74
2021/06/10 11:44:01;;;;;;;5.75;3.90;;;27.50;47.30;;;;;;5003129;28;20033;-73
2021/06/10 11:46:45;;;;;;;7.30;3.60;;;27.50;47.40;;;;;;5016188;28;20041;-71
2021/06/10 11:49:33;;;;;;;9.43;3.67;;;27.50;47.40;;;;;;5008080;28;20532;-73
2021/06/10 11:52:17;;;;;;;8.18;3.78;;;27.60;47.60;;;;;;5014304;28;20057;-74
2021/06/10 11:55:05;;;;;;;5.28;3.03;;;27.60;47.50;;;;;;5005638;28;20099;-74
2021/06/10 11:57:54;;;;;;;4.75;3.75;;;27.60;47.70;;;;;;5003848;28;20088;-74
2021/06/10 12:00:46;;;;;;;5.30;3.17;;;27.70;47.70;;;;;;5003766;28;20065;-73
2021/06/10 12:03:35;;;;;;;6.57;3.28;;;27.80;47.50;;;;;;5000856;28;20057;-73
2021/06/10 12:06:19;;;;;;;4.72;3.67;;;27.90;46.90;;;;;;5011828;28;20497;-72
2021/06/10 12:09:13;;;;;;;5.50;3.28;;;27.80;46.70;;;;;;5005911;28;20960;-73
2021/06/10 12:11:57;;;;;;;4.68;3.75;;;27.70;47.10;;;;;;5007078;28;20556;-73
2021/06/10 12:14:41;;;;;;;7.07;3.92;;;27.70;46.80;;;;;;5006925;28;20045;-73
2021/06/10 12:17:25;;;;;;;4.78;3.67;;;27.70;46.70;;;;;;5008191;28;20461;-72
2021/06/10 12:20:17;;;;;;;5.00;3.42;;;27.80;46.70;;;;;;5007139;28;20109;-72
2021/06/10 12:23:09;;;;;;;5.68;3.40;;;27.90;45.70;;;;;;5011831;28;20452;-72
2021/06/10 12:25:54;;;;;;;4.78;3.30;;;28.00;46.10;;;;;;5013484;28;20045;-73
2021/06/10 12:28:48;;;;;;;;;;;28.10;46.10;;;;;;5000538;28;20084;-74
2021/06/10 12:31:37;;;;;;;6.00;3.70;;;28.20;45.90;;;;;;4998485;28;19952;-73
2021/06/10 12:34:21;;;;;;;5.68;3.67;;;28.20;45.50;;;;;;5010935;28;20041;-74
2021/06/10 12:37:10;;;;;;;3.35;2.80;;;28.40;45.40;;;;;;5005608;28;20099;-73
2021/06/10 12:40:00;;;;;;;3.88;3.33;;;28.50;43.50;;;;;;5017716;28;20077;-74
2021/06/10 12:43:07;;;;;;;6.53;3.13;;;28.60;43.30;;;;;;5002178;28;20032;-72
2021/06/10 12:46:02;;;;;;;4.78;3.10;;;28.80;43.50;;;;;;5011967;28;20576;-73
2021/06/10 12:48:58;;;;;;;4.55;3.05;;;29.00;42.40;;;;;;5010158;28;20615;-73
2021/06/10 12:51:51;;;;;;;5.80;3.22;;;29.00;41.60;;;;;;5012208;28;20113;-73
2021/06/10 12:54:35;;;;;;;6.13;3.00;;;29.10;42.00;;;;;;5002516;28;20323;-75
2021/06/10 12:57:21;;;;;;;5.35;3.05;;;29.30;41.50;;;;;;5007714;28;20072;-73
2021/06/10 13:00:10;;;;;;;6.03;2.80;;;29.40;41.30;;;;;;4993387;28;20041;-73
2021/06/10 13:03:02;;;;;;;3.38;3.00;;;29.50;41.70;;;;;;5009375;28;20107;-73
2021/06/10 13:06:05;;;;;;;6.22;3.38;;;29.60;41.20;;;;;;5011496;28;20095;-72
2021/06/10 13:08:49;;;;;;;4.97;3.00;;;29.70;41.30;;;;;;5010456;28;20033;-72
2021/06/10 13:11:34;;;;;;;6.85;3.22;;;29.70;41.40;;;;;;5015877;28;20037;-72
2021/06/10 13:14:18;;;;;;;6.55;3.15;;;29.70;41.00;;;;;;5013823;28;20109;-70
2021/06/10 13:17:03;;;;;;;7.38;3.75;;;29.80;41.30;;;;;;5012414;28;20041;-71
2021/06/10 13:19:48;;;;;;;5.85;2.78;;;29.90;40.00;;;;;;5000468;28;20041;-71
2021/06/10 13:22:32;;;;;;;5.30;2.63;;;30.10;39.10;;;;;;5000610;28;20091;-72
2021/06/10 13:25:21;;;;;;;3.45;2.72;;;30.20;39.40;;;;;;5010014;28;20449;-71
2021/06/10 13:28:16;;;;;;;5.60;3.00;;;30.20;39.70;;;;;;5025001;28;20061;-72
2021/06/10 13:31:15;;;;;;;3.60;2.80;;;30.30;39.50;;;;;;5011573;28;20085;-71
2021/06/10 13:34:02;;;;;;;5.22;2.70;;;30.40;39.30;;;;;;5004492;28;20418;-70
2021/06/10 13:37:01;;;;;;;6.75;2.85;;;30.50;39.70;;;;;;5006217;28;20033;-71
2021/06/10 13:39:45;;;;;;;4.70;2.55;;;30.50;38.80;;;;;;5004491;28;20536;-72
2021/06/10 13:42:30;;;;;;;5.07;2.65;;;30.70;38.60;;;;;;5010642;28;20286;-69
2021/06/10 13:45:15;;;;;;;5.90;2.75;;;30.80;38.00;;;;;;4996276;28;20061;-70
2021/06/10 13:47:59;;;;;;;5.70;2.63;;;30.90;38.20;;;;;;5007605;28;20029;-72
2021/06/10 13:50:44;;;;;;;7.18;3.20;;;31.00;37.80;;;;;;5011522;28;20438;-72
2021/06/10 13:53:29;;;;;;;4.85;2.90;;;31.10;37.30;;;;;;5023125;28;20048;-71
2021/06/10 13:56:14;;;;;;;4.93;2.53;;;31.00;37.80;;;;;;4992504;28;20057;-73
2021/06/10 13:58:58;;;;;;;3.40;2.55;;;31.00;37.50;;;;;;4996938;28;20540;-71
2021/06/10 14:01:42;;;;;;;3.80;2.80;;;31.10;37.90;;;;;;5011047;28;20119;-71
2021/06/10 14:04:26;;;;;;;3.30;2.72;;;31.20;38.10;;;;;;5015205;28;20515;-71
2021/06/10 14:07:10;;;;;;;2.67;2.33;;;31.30;37.80;;;;;;5003272;28;20525;-70
2021/06/10 14:09:54;;;;;;;4.45;2.80;;;31.30;37.70;;;;;;5010989;28;20103;-71
2021/06/10 14:12:38;;;;;;;3.72;2.60;;;31.30;37.90;;;;;;5011356;28;20037;-71
2021/06/10 14:15:23;;;;;;;4.60;3.00;;;31.30;37.20;;;;;;5009774;28;20080;-71
2021/06/10 14:18:08;;;;;;;4.75;2.88;;;31.20;37.90;;;;;;5010775;28;20084;-71